createdAt,value
2018-12-03T00:01:07.694Z,95558.23
2018-12-03T00:03:38.766Z,95556.42
2018-12-03T00:06:08.399Z,95394.52
2018-12-03T00:08:37.970Z,95565.72
2018-12-03T00:11:09.321Z,95561.88
2018-12-03T00:13:37.830Z,95554.61
2018-12-03T00:16:09.034Z,95552.42
2018-12-03T00:18:38.232Z,95552.32
2018-12-03T00:21:07.739Z,95582.76
2018-12-03T00:23:40.606Z,95558.61
2018-12-03T00:26:11.120Z,95556.84
2018-12-03T00:28:40.170Z,95561.94
2018-12-03T00:31:10.925Z,95557.75
2018-12-03T00:33:40.562Z,95565.17
2018-12-03T00:36:10.534Z,95562.16
2018-12-03T00:38:42.197Z,95562.94
2018-12-03T00:41:11.553Z,95559.48
2018-12-03T00:43:41.066Z,95571.30
2018-12-03T00:46:11.145Z,95557.45
2018-12-03T00:48:40.663Z,95569.30
2018-12-03T00:51:10.502Z,95564.94
2018-12-03T00:53:39.379Z,95562.45
2018-12-03T00:56:09.947Z,95563.80
2018-12-03T00:58:39.426Z,95562.30
2018-12-03T01:01:08.055Z,95567.36
2018-12-03T01:03:36.584Z,95567.81
2018-12-03T01:06:07.703Z,95569.20
2018-12-03T01:08:37.948Z,95575.56
2018-12-03T01:11:07.774Z,95572.37
2018-12-03T01:13:38.548Z,95571.17
2018-12-03T01:16:08.501Z,95581.60
2018-12-03T01:18:37.069Z,95585.35
2018-12-03T01:21:11.174Z,95585.94
2018-12-03T01:23:41.057Z,95596.94
2018-12-03T01:26:10.754Z,95591.80
2018-12-03T01:28:41.694Z,95584.93
2018-12-03T01:31:13.758Z,95590.19
2018-12-03T01:33:51.109Z,95598.45
2018-12-03T01:36:20.339Z,95588.93
2018-12-03T01:38:50.833Z,95582.05
2018-12-03T01:41:22.255Z,95576.50
2018-12-03T01:43:53.757Z,95577.59
2018-12-03T01:46:23.630Z,95587.11
2018-12-03T01:48:52.949Z,95578.49
2018-12-03T01:51:21.459Z,95581.80
2018-12-03T01:53:50.662Z,95582.91
2018-12-03T01:56:19.623Z,95584.65
2018-12-03T01:58:48.913Z,95578.38
2018-12-03T02:01:18.466Z,95583.86
2018-12-03T02:03:48.070Z,95574.14
2018-12-03T02:06:16.596Z,95527.11
2018-12-03T02:08:47.173Z,95571.06
2018-12-03T02:11:16.193Z,95571.94
2018-12-03T02:13:44.750Z,95574.78
2018-12-03T02:16:14.317Z,95575.96
2018-12-03T02:18:44.847Z,95575.88
2018-12-03T02:21:21.115Z,95586.52
2018-12-03T02:23:50.509Z,95572.13
2018-12-03T02:26:19.994Z,95573.56
2018-12-03T02:28:48.737Z,95570.99
2018-12-03T02:31:18.255Z,95575.88
2018-12-03T02:33:48.010Z,95571.47
2018-12-03T02:36:16.851Z,95572.42
2018-12-03T02:38:46.984Z,95569.52
2018-12-03T02:41:16.639Z,95564.22
2018-12-03T02:43:47.546Z,95571.58
2018-12-03T02:46:18.546Z,95576.55
2018-12-03T02:48:49.161Z,95576.91
2018-12-03T02:51:18.778Z,95588.80
2018-12-03T02:53:48.750Z,95583.72
2018-12-03T02:56:18.019Z,95587.70
2018-12-03T02:58:49.104Z,95581.30
2018-12-03T03:01:19.647Z,95577.98
2018-12-03T03:03:49.543Z,95581.08
2018-12-03T03:06:22.098Z,95572.47
2018-12-03T03:08:52.720Z,95569.16
2018-12-03T03:11:22.360Z,95563.12
2018-12-03T03:13:51.472Z,95568.42
2018-12-03T03:16:21.363Z,95564.96
2018-12-03T03:18:50.886Z,95578.55
2018-12-03T03:21:20.505Z,95587.11
2018-12-03T03:23:50.943Z,95589.11
2018-12-03T03:26:20.513Z,95594.77
2018-12-03T03:28:50.767Z,95582.41
2018-12-03T03:31:20.779Z,95589.14
2018-12-03T03:33:49.719Z,95575.00
2018-12-03T03:36:18.302Z,95582.55
2018-12-03T03:38:48.318Z,95578.70
2018-12-03T03:41:17.474Z,95579.91
2018-12-03T03:43:46.966Z,95594.77
2018-12-03T03:46:16.906Z,95591.16
2018-12-03T03:48:46.040Z,95582.59
2018-12-03T03:51:16.159Z,95589.39
2018-12-03T03:53:45.772Z,95592.41
2018-12-03T03:56:15.782Z,95602.13
2018-12-03T03:58:45.181Z,95610.86
2018-12-03T04:01:15.159Z,95606.81
2018-12-03T04:03:46.967Z,95593.52
2018-12-03T04:06:17.486Z,95594.09
2018-12-03T04:08:51.076Z,95589.38
2018-12-03T04:11:20.565Z,95591.16
2018-12-03T04:13:50.762Z,95580.71
2018-12-03T04:16:20.975Z,95592.66
2018-12-03T04:18:50.280Z,95583.20
2018-12-03T04:21:19.438Z,95584.44
2018-12-03T04:23:48.944Z,95588.55
2018-12-03T04:26:18.112Z,95585.22
2018-12-03T04:28:47.188Z,95577.56
2018-12-03T04:31:16.602Z,95578.73
2018-12-03T04:33:45.623Z,95582.24
2018-12-03T04:36:19.440Z,95590.29
2018-12-03T04:38:48.895Z,95578.70
2018-12-03T04:41:18.486Z,95575.43
2018-12-03T04:43:48.307Z,95566.64
2018-12-03T04:46:18.640Z,95571.56
2018-12-03T04:48:48.074Z,95571.49
2018-12-03T04:51:17.108Z,95583.72
2018-12-03T04:53:46.803Z,95580.21
2018-12-03T04:56:17.435Z,95577.89
2018-12-03T04:58:50.737Z,95579.57
2018-12-03T05:01:20.097Z,95579.02
2018-12-03T05:03:49.671Z,95583.47
2018-12-03T05:06:21.996Z,95579.98
2018-12-03T05:08:51.381Z,95586.13
2018-12-03T05:11:22.302Z,95591.64
2018-12-03T05:13:53.105Z,95513.45
2018-12-03T05:16:22.767Z,95599.49
2018-12-03T05:18:51.854Z,95591.23
2018-12-03T05:21:23.099Z,95594.65
2018-12-03T05:23:51.634Z,95612.15
2018-12-03T05:26:22.441Z,95601.91
2018-12-03T05:28:52.738Z,95593.23
2018-12-03T05:31:22.130Z,95599.91
2018-12-03T05:33:51.262Z,95600.20
2018-12-03T05:36:20.292Z,95605.41
2018-12-03T05:38:50.363Z,95622.33
2018-12-03T05:41:20.360Z,95631.21
2018-12-03T05:43:49.667Z,95638.31
2018-12-03T05:46:18.204Z,95639.02
2018-12-03T05:48:49.065Z,95640.27
2018-12-03T05:51:19.103Z,95637.56
2018-12-03T05:53:49.360Z,95668.78
2018-12-03T05:56:19.883Z,95631.85
2018-12-03T05:58:48.553Z,95626.34
2018-12-03T06:01:17.549Z,95614.91
2018-12-03T06:03:46.921Z,95619.20
2018-12-03T06:06:16.726Z,95618.44
2018-12-03T06:08:48.555Z,95623.45
2018-12-03T06:11:18.567Z,95634.02
2018-12-03T06:13:47.833Z,95644.02
2018-12-03T06:16:18.974Z,95640.78
2018-12-03T06:18:48.866Z,95641.59
2018-12-03T06:21:20.763Z,95642.00
2018-12-03T06:23:51.011Z,95632.13
2018-12-03T06:26:20.556Z,95635.96
2018-12-03T06:28:50.762Z,95630.33
2018-12-03T06:31:19.786Z,95633.78
2018-12-03T06:33:51.642Z,95635.36
2018-12-03T06:36:20.932Z,95633.94
2018-12-03T06:38:51.220Z,95645.23
2018-12-03T06:41:21.907Z,95636.84
2018-12-03T06:43:53.335Z,95711.63
2018-12-03T06:46:25.393Z,95625.14
2018-12-03T06:48:54.628Z,95626.58
2018-12-03T06:51:27.620Z,95629.16
2018-12-03T06:53:58.493Z,95626.54
2018-12-03T06:56:27.923Z,95638.42
2018-12-03T06:58:57.506Z,95638.98
2018-12-03T07:01:26.882Z,95641.27
2018-12-03T07:03:57.334Z,95639.80
2018-12-03T07:06:26.912Z,95645.47
2018-12-03T07:08:57.600Z,95648.55
2018-12-03T07:11:27.109Z,95645.76
2018-12-03T07:13:56.226Z,95650.95
2018-12-03T07:16:27.354Z,95654.80
2018-12-03T07:18:57.735Z,95654.84
2018-12-03T07:21:26.503Z,95653.97
2018-12-03T07:23:55.940Z,95652.93
2018-12-03T07:26:25.041Z,95653.45
2018-12-03T07:28:55.058Z,95659.64
2018-12-03T07:31:25.304Z,95652.67
2018-12-03T07:33:56.220Z,95658.34
2018-12-03T07:36:26.754Z,95658.34
2018-12-03T07:38:57.317Z,95663.98
2018-12-03T07:41:26.360Z,95662.24
2018-12-03T07:43:54.944Z,95657.63
2018-12-03T07:46:25.491Z,95655.87
2018-12-03T07:48:55.058Z,95662.34
2018-12-03T07:51:25.195Z,95670.75
2018-12-03T07:53:55.154Z,95670.07
2018-12-03T07:56:26.893Z,95677.82
2018-12-03T07:58:56.735Z,95673.98
2018-12-03T08:01:25.267Z,95668.09
2018-12-03T08:03:55.692Z,95675.72
2018-12-03T08:06:24.870Z,95663.03
2018-12-03T08:08:54.434Z,95662.89
2018-12-03T08:11:24.275Z,95658.15
2018-12-03T08:13:54.550Z,95658.80
2018-12-03T08:16:24.308Z,95659.80
2018-12-03T08:18:58.117Z,95651.95
2018-12-03T08:21:26.756Z,95667.06
2018-12-03T08:24:04.461Z,95654.20
2018-12-03T08:26:34.057Z,95655.27
2018-12-03T08:29:03.231Z,95649.07
2018-12-03T08:31:33.967Z,95651.81
2018-12-03T08:34:03.794Z,95662.09
2018-12-03T08:36:33.935Z,95644.86
2018-12-03T08:39:04.440Z,95652.98
2018-12-03T08:41:34.201Z,95640.51
2018-12-03T08:44:05.548Z,95642.73
2018-12-03T08:46:34.511Z,95636.48
2018-12-03T08:49:05.247Z,95633.61
2018-12-03T08:51:35.068Z,95634.16
2018-12-03T08:54:05.284Z,95645.73
2018-12-03T08:56:34.962Z,95648.63
2018-12-03T08:59:05.691Z,95656.13
2018-12-03T09:01:36.049Z,95660.11
2018-12-03T09:04:08.386Z,95652.83
2018-12-03T09:06:36.955Z,95685.63
2018-12-03T09:09:09.551Z,95651.63
2018-12-03T09:11:46.677Z,95661.70
2018-12-03T09:14:16.252Z,95653.30
2018-12-03T09:16:46.357Z,95669.61
2018-12-03T09:19:35.791Z,95679.45
2018-12-03T09:22:05.016Z,95678.48
2018-12-03T09:24:41.910Z,95672.74
2018-12-03T09:27:13.066Z,95674.52
2018-12-03T09:30:14.698Z,95669.17
2018-12-03T09:32:45.754Z,95668.69
2018-12-03T09:35:15.650Z,95609.59
2018-12-03T09:37:44.541Z,95689.43
2018-12-03T09:40:18.291Z,95688.43
2018-12-03T09:42:46.865Z,95681.40
2018-12-03T09:45:17.511Z,95675.82
2018-12-03T09:47:47.504Z,95668.62
2018-12-03T09:50:26.823Z,95669.38
2018-12-03T09:52:56.229Z,95663.13
2018-12-03T09:55:32.792Z,95669.52
2018-12-03T09:58:10.749Z,95663.05
2018-12-03T10:00:39.889Z,95660.17
2018-12-03T10:03:15.868Z,95652.61
2018-12-03T10:05:47.948Z,95645.98
2018-12-03T10:08:17.764Z,95641.19
2018-12-03T10:10:51.319Z,95632.42
2018-12-03T10:13:21.734Z,95623.20
2018-12-03T10:15:51.262Z,95613.05
2018-12-03T10:18:19.842Z,95605.45
2018-12-03T10:20:51.517Z,95608.67
2018-12-03T10:23:21.146Z,95598.22
2018-12-03T10:25:55.534Z,95595.18
2018-12-03T10:28:25.146Z,95589.03
2018-12-03T10:30:55.607Z,95582.09
2018-12-03T10:33:29.672Z,95578.33
2018-12-03T10:35:59.171Z,95580.08
2018-12-03T10:38:30.337Z,95581.06
2018-12-03T10:41:08.549Z,95574.02
2018-12-03T10:43:37.384Z,95574.08
2018-12-03T10:46:06.949Z,95572.04
2018-12-03T10:48:35.525Z,95560.27
2018-12-03T10:51:05.487Z,95562.74
2018-12-03T10:53:36.670Z,95386.77
2018-12-03T10:56:07.313Z,95557.73
2018-12-03T10:58:40.742Z,95552.48
2018-12-03T11:01:16.838Z,95549.87
2018-12-03T11:03:50.457Z,95547.82
2018-12-03T11:06:21.656Z,95551.34
2018-12-03T11:08:52.226Z,95549.24
2018-12-03T11:11:22.668Z,95549.48
2018-12-03T11:13:52.445Z,95557.20
2018-12-03T11:16:29.715Z,95184.78
2018-12-03T11:19:09.126Z,95551.88
2018-12-03T11:21:38.428Z,95549.92
2018-12-03T11:24:07.933Z,95550.03
2018-12-03T11:26:40.094Z,95556.94
2018-12-03T11:29:10.603Z,95551.43
2018-12-03T11:31:39.587Z,95548.47
2018-12-03T11:34:08.163Z,95546.42
2018-12-03T11:36:43.630Z,95556.52
2018-12-03T11:39:21.357Z,95552.63
2018-12-03T11:41:53.759Z,95547.55
2018-12-03T11:44:23.489Z,95546.72
2018-12-03T11:46:52.798Z,95536.88
2018-12-03T11:49:23.085Z,95541.37
2018-12-03T11:51:53.572Z,95540.51
2018-12-03T11:54:22.107Z,95533.34
2018-12-03T11:56:51.378Z,95532.53
2018-12-03T11:59:20.743Z,95521.39
2018-12-03T12:01:50.302Z,95530.18
2018-12-03T12:04:20.149Z,95529.27
2018-12-03T12:06:51.651Z,95520.48
2018-12-03T12:09:21.547Z,95521.45
2018-12-03T12:11:50.536Z,95515.14
2018-12-03T12:14:24.178Z,95512.73
2018-12-03T12:16:53.691Z,95503.02
2018-12-03T12:19:23.175Z,95495.91
2018-12-03T12:21:52.265Z,95487.80
2018-12-03T12:24:21.392Z,95476.48
2018-12-03T12:26:58.447Z,95475.20
2018-12-03T12:29:28.202Z,95474.02
2018-12-03T12:31:59.250Z,95482.42
2018-12-03T12:34:28.683Z,95490.13
2018-12-03T12:36:58.171Z,95494.73
2018-12-03T12:39:29.155Z,95491.56
2018-12-03T12:41:58.008Z,95486.77
2018-12-03T12:44:26.902Z,95496.42
2018-12-03T12:46:55.939Z,95493.92
2018-12-03T12:49:25.688Z,95493.66
2018-12-03T12:51:57.845Z,95480.21
2018-12-03T12:54:27.560Z,95494.04
2018-12-03T12:56:56.844Z,95495.87
2018-12-03T12:59:26.759Z,95489.65
2018-12-03T13:01:56.792Z,95486.64
2018-12-03T13:04:29.431Z,95489.95
2018-12-03T13:06:58.936Z,95481.98
2018-12-03T13:09:29.106Z,95497.58
2018-12-03T13:11:58.559Z,95493.60
2018-12-03T13:14:28.686Z,95487.66
2018-12-03T13:16:57.787Z,95482.59
2018-12-03T13:19:26.496Z,95473.62
2018-12-03T13:21:55.751Z,95468.97
2018-12-03T13:24:24.330Z,95461.88
2018-12-03T13:26:54.807Z,95461.27
2018-12-03T13:29:24.689Z,95462.19
2018-12-03T13:31:54.120Z,95461.98
2018-12-03T13:34:24.716Z,95464.48
2018-12-03T13:36:54.850Z,95460.66
2018-12-03T13:39:23.910Z,95465.24
2018-12-03T13:41:53.792Z,95463.92
2018-12-03T13:44:22.323Z,95463.41
2018-12-03T13:46:51.361Z,95446.62
2018-12-03T13:49:19.924Z,95437.23
2018-12-03T13:51:49.597Z,95433.86
2018-12-03T13:54:18.495Z,95451.47
2018-12-03T13:56:47.671Z,95436.70
2018-12-03T13:59:16.210Z,95444.02
2018-12-03T14:01:45.454Z,95437.06
2018-12-03T14:04:16.463Z,95430.95
2018-12-03T14:06:53.059Z,95432.22
2018-12-03T14:09:35.963Z,95178.08
2018-12-03T14:12:38.561Z,95445.94
2018-12-03T14:15:59.722Z,95451.98
2018-12-03T14:18:38.807Z,95464.17
2018-12-03T14:21:14.942Z,95468.92
2018-12-03T14:23:44.551Z,95465.50
2018-12-03T14:26:13.412Z,95463.03
2018-12-03T14:28:43.501Z,95460.98
2018-12-03T14:31:12.188Z,95463.95
2018-12-03T14:33:43.012Z,95463.78
2018-12-03T14:36:14.037Z,95460.13
2018-12-03T14:38:43.932Z,95454.78
2018-12-03T14:41:14.297Z,95447.78
2018-12-03T14:43:43.474Z,95452.43
2018-12-03T14:46:12.868Z,95462.78
2018-12-03T14:48:41.978Z,95457.55
2018-12-03T14:51:13.614Z,95466.71
2018-12-03T14:53:43.687Z,95459.21
2018-12-03T14:56:13.173Z,95451.80
2018-12-03T14:58:42.395Z,95449.17
2018-12-03T15:01:11.672Z,95456.09
2018-12-03T15:03:41.360Z,95443.75
2018-12-03T15:06:10.036Z,95450.19
2018-12-03T15:08:40.871Z,95442.26
2018-12-03T15:11:10.491Z,95444.25
2018-12-03T15:13:41.311Z,95363.21
2018-12-03T15:16:10.955Z,95426.75
2018-12-03T15:18:40.206Z,95426.69
2018-12-03T15:21:11.352Z,95421.30
2018-12-03T15:23:42.251Z,95413.08
2018-12-03T15:26:11.568Z,95412.16
2018-12-03T15:28:40.846Z,95407.86
2018-12-03T15:31:10.007Z,95424.27
2018-12-03T15:33:39.720Z,95425.79
2018-12-03T15:36:12.740Z,95424.67
2018-12-03T15:38:43.578Z,95436.56
2018-12-03T15:41:13.213Z,95442.37
2018-12-03T15:43:43.286Z,95443.04
2018-12-03T15:46:12.288Z,95442.26
2018-12-03T15:48:41.208Z,95440.13
2018-12-03T15:51:10.530Z,95449.02
2018-12-03T15:53:40.898Z,95442.89
2018-12-03T15:56:10.213Z,95439.77
2018-12-03T15:58:41.181Z,95432.69
2018-12-03T16:01:14.463Z,95427.23
2018-12-03T16:03:40.403Z,95419.63
2018-12-03T16:06:10.577Z,95425.33
2018-12-03T16:08:40.440Z,95427.48
2018-12-03T16:11:13.468Z,95425.80
2018-12-03T16:13:43.995Z,95428.85
2018-12-03T16:16:14.171Z,95420.95
2018-12-03T16:18:44.167Z,95120.55
2018-12-03T16:21:17.189Z,95401.22
2018-12-03T16:23:47.486Z,95396.51
2018-12-03T16:26:32.134Z,95393.39
2018-12-03T16:29:02.110Z,95385.64
2018-12-03T16:31:31.055Z,95387.42
2018-12-03T16:34:01.464Z,95390.95
2018-12-03T16:36:30.066Z,95399.20
2018-12-03T16:39:00.575Z,95392.23
2018-12-03T16:41:32.076Z,95388.36
2018-12-03T16:44:01.231Z,95383.19
2018-12-03T16:46:32.292Z,95375.91
2018-12-03T16:49:01.989Z,95385.37
2018-12-03T16:51:32.126Z,95368.20
2018-12-03T16:54:02.469Z,95370.60
2018-12-03T16:56:32.812Z,95365.50
2018-12-03T16:59:03.059Z,95370.33
2018-12-03T17:01:31.655Z,95368.63
2018-12-03T17:04:16.831Z,95362.45
2018-12-03T17:08:15.000Z,95347.99
2018-12-03T17:10:44.427Z,95353.25
2018-12-03T17:13:13.098Z,95347.94
2018-12-03T17:15:41.978Z,95345.15
2018-12-03T17:18:11.541Z,95354.36
2018-12-03T17:20:47.648Z,95358.38
2018-12-03T17:23:26.168Z,95350.70
2018-12-03T17:25:55.738Z,95346.75
2018-12-03T17:28:24.516Z,95330.02
2018-12-03T17:30:54.309Z,95320.13
2018-12-03T17:33:24.463Z,95252.86
2018-12-03T17:35:55.102Z,95318.77
2018-12-03T17:38:24.822Z,95321.13
2018-12-03T17:40:53.739Z,95317.54
2018-12-03T17:43:23.831Z,95311.66
2018-12-03T17:45:54.026Z,95305.27
2018-12-03T17:48:23.758Z,95303.86
2018-12-03T17:50:52.915Z,95305.16
2018-12-03T17:53:21.534Z,95298.22
2018-12-03T17:55:51.555Z,95298.01
2018-12-03T17:58:22.056Z,95301.39
2018-12-03T18:00:51.593Z,95301.55
2018-12-03T18:03:24.184Z,95302.88
2018-12-03T18:05:53.702Z,95300.13
2018-12-03T18:08:23.118Z,95288.61
2018-12-03T18:10:52.677Z,95291.81
2018-12-03T18:13:22.347Z,95285.75
2018-12-03T18:15:53.103Z,95291.34
2018-12-03T18:18:23.372Z,95284.38
2018-12-03T18:21:02.570Z,95297.25
2018-12-03T18:23:33.606Z,95300.40
2018-12-03T18:26:03.476Z,95300.87
2018-12-03T18:28:33.855Z,95309.42
2018-12-03T18:31:04.028Z,95304.77
2018-12-03T18:33:33.163Z,95305.02
2018-12-03T18:36:02.491Z,95306.92
2018-12-03T18:38:31.251Z,95305.75
2018-12-03T18:41:03.457Z,95303.63
2018-12-03T18:43:32.628Z,95305.31
2018-12-03T18:46:02.798Z,95307.97
2018-12-03T18:48:32.756Z,95303.72
2018-12-03T18:51:03.241Z,95282.50
2018-12-03T18:53:34.118Z,95294.13
2018-12-03T18:56:02.997Z,95281.20
2018-12-03T18:58:43.544Z,95276.66
2018-12-03T19:01:14.555Z,95289.03
2018-12-03T19:03:46.583Z,95291.20
2018-12-03T19:06:16.668Z,95300.48
2018-12-03T19:08:45.296Z,95358.61
2018-12-03T19:11:14.962Z,95326.48
2018-12-03T19:13:44.451Z,95329.00
2018-12-03T19:16:13.075Z,95328.87
2018-12-03T19:18:41.944Z,95344.16
2018-12-03T19:21:13.006Z,95358.64
2018-12-03T19:23:49.878Z,95365.36
2018-12-03T19:26:19.279Z,95379.72
2018-12-03T19:28:48.400Z,95391.41
2018-12-03T19:31:18.385Z,95400.30
2018-12-03T19:33:48.100Z,95392.14
2018-12-03T19:36:17.442Z,95418.39
2018-12-03T19:38:48.856Z,95413.97
2018-12-03T19:41:18.041Z,95425.29
2018-12-03T19:43:46.625Z,95426.52
2018-12-03T19:46:16.028Z,95436.23
2018-12-03T19:48:45.663Z,95435.56
2018-12-03T19:51:14.348Z,95434.97
2018-12-03T19:53:45.708Z,95463.34
2018-12-03T19:56:15.398Z,95468.89
2018-12-03T19:58:47.149Z,95481.25
2018-12-03T20:01:16.632Z,95478.53
2018-12-03T20:03:45.957Z,95477.86
2018-12-03T20:06:14.640Z,95475.98
2018-12-03T20:08:43.746Z,95477.83
2018-12-03T20:11:13.244Z,95482.22
2018-12-03T20:13:42.350Z,95494.67
2018-12-03T20:16:13.343Z,95513.23
2018-12-03T20:18:44.442Z,95502.39
2018-12-03T20:21:30.626Z,95520.81
2018-12-03T20:24:04.552Z,95536.52
2018-12-03T20:26:37.754Z,95548.86
2018-12-03T20:29:17.670Z,95562.83
2018-12-03T20:32:01.821Z,95587.16
2018-12-03T20:34:37.838Z,95586.99
2018-12-03T20:37:47.982Z,95610.39
2018-12-03T20:40:35.963Z,95625.77
2018-12-03T20:43:11.079Z,95641.14
2018-12-03T20:46:18.596Z,95641.83
2018-12-03T20:48:58.234Z,95643.11
2018-12-03T20:51:37.218Z,95659.69
2018-12-03T20:54:06.246Z,95657.11
2018-12-03T20:56:36.392Z,95684.50
2018-12-03T20:59:05.053Z,95693.53
2018-12-03T21:01:40.952Z,95683.97
2018-12-03T21:04:10.061Z,95693.25
2018-12-03T21:06:40.567Z,95699.53
2018-12-03T21:09:10.135Z,95710.40
2018-12-03T21:11:39.231Z,95715.61
2018-12-03T21:14:08.261Z,95462.59
2018-12-03T21:16:37.769Z,95727.54
2018-12-03T21:19:06.309Z,95737.88
2018-12-03T21:21:34.992Z,95741.24
2018-12-03T21:24:03.995Z,95752.63
2018-12-03T21:26:34.030Z,95776.14
2018-12-03T21:29:04.570Z,95760.83
2018-12-03T21:31:35.813Z,95763.20
2018-12-03T21:34:06.428Z,95764.31
2018-12-03T21:36:37.327Z,95774.42
2018-12-03T21:39:09.008Z,95779.30
2018-12-03T21:41:38.052Z,95786.75
2018-12-03T21:44:07.809Z,95787.70
2018-12-03T21:46:40.295Z,95798.62
2018-12-03T21:49:09.870Z,95809.02
2018-12-03T21:51:40.389Z,95812.07
2018-12-03T21:54:09.938Z,95804.70
2018-12-03T21:56:40.130Z,95807.09
2018-12-03T21:59:10.383Z,95808.72
2018-12-03T22:01:39.555Z,95807.67
2018-12-03T22:04:09.788Z,95804.33
2018-12-03T22:06:40.728Z,95811.09
2018-12-03T22:09:10.228Z,95866.91
2018-12-03T22:11:39.368Z,95766.31
2018-12-03T22:14:09.760Z,95825.67
2018-12-03T22:16:38.556Z,95829.13
2018-12-03T22:19:11.287Z,95838.69
2018-12-03T22:21:41.030Z,95834.76
2018-12-03T22:24:10.436Z,95767.05
2018-12-03T22:26:39.590Z,95852.91
2018-12-03T22:29:09.840Z,95859.57
2018-12-03T22:31:39.960Z,95788.23
2018-12-03T22:34:08.945Z,95873.37
2018-12-03T22:36:38.994Z,95869.55
2018-12-03T22:39:09.507Z,95865.77
2018-12-03T22:41:40.389Z,95867.20
2018-12-03T22:44:09.218Z,95865.17
2018-12-03T22:46:39.619Z,95853.73
2018-12-03T22:49:10.243Z,95856.01
2018-12-03T22:51:40.238Z,95855.92
2018-12-03T22:54:11.278Z,95864.97
2018-12-03T22:56:40.809Z,95855.69
2018-12-03T22:59:11.411Z,95864.98
2018-12-03T23:01:42.931Z,95861.53
2018-12-03T23:04:11.882Z,95856.05
2018-12-03T23:06:42.082Z,95872.16
2018-12-03T23:09:11.968Z,95877.14
2018-12-03T23:11:42.803Z,95874.64
2018-12-03T23:14:14.288Z,95878.06
2018-12-03T23:16:43.703Z,95882.72
2018-12-03T23:19:12.411Z,95882.92
2018-12-03T23:21:41.192Z,95887.37
2018-12-03T23:24:10.091Z,95898.73
2018-12-03T23:26:40.032Z,95911.11
2018-12-03T23:29:09.141Z,95903.58
2018-12-03T23:31:40.855Z,95903.99
2018-12-03T23:34:11.767Z,95893.37
2018-12-03T23:36:40.371Z,95895.71
2018-12-03T23:39:11.357Z,95902.86
2018-12-03T23:41:41.031Z,95907.85
2018-12-03T23:44:41.627Z,95906.55
2018-12-03T23:47:10.811Z,95912.16
2018-12-03T23:49:41.130Z,95912.33
2018-12-03T23:52:10.598Z,95915.91
2018-12-03T23:54:40.712Z,95922.20
2018-12-03T23:57:10.010Z,95918.00
2018-12-03T23:59:39.862Z,95921.41
